Weather at Birdsville Airport

Public forecast

Using degrees Celsius for public forecast. Weather courtesy of forecast.io.

Current aviation weather report (METAR) for Birdsville Airport

Report is more than 6 hours old.

Retrieved 2022/08/12 05:00 UTC (4 days ago):

YBDV 120500Z AUTO 27015G27KT 9999 // NCD 22/M01 Q1016

Closest aviation forecast (TAF) to Birdsville Airport

Closest forecast is Alice Springs Airport, 322.1 nm (596.4 km) WNW. Retrieved 2022/08/16 06:36 UTC (1 hour ago):

TAF YBAS 160502Z 1606/1706 13010KT CAVOK FM161200 34005KT CAVOK FM170000 34008KT CAVOK